sensor_id;sensor_type;location;lat;lon;timestamp;P1;durP1;ratioP1;P2;durP2;ratioP2
51836;SDS011;38941;53.254;6.600;2023-10-31T00:01:22;3.15;;;0.70;;
51836;SDS011;38941;53.254;6.600;2023-10-31T00:03:23;4.88;;;0.80;;
51836;SDS011;38941;53.254;6.600;2023-10-31T00:05:24;4.70;;;1.10;;
51836;SDS011;38941;53.254;6.600;2023-10-31T00:07:24;9.20;;;1.20;;
51836;SDS011;38941;53.254;6.600;2023-10-31T00:09:25;5.20;;;0.80;;
51836;SDS011;38941;53.254;6.600;2023-10-31T00:11:26;3.17;;;0.60;;
51836;SDS011;38941;53.254;6.600;2023-10-31T00:13:27;7.88;;;0.90;;
51836;SDS011;38941;53.254;6.600;2023-10-31T00:15:27;3.97;;;0.82;;
51836;SDS011;38941;53.254;6.600;2023-10-31T00:17:30;5.85;;;1.10;;
51836;SDS011;38941;53.254;6.600;2023-10-31T00:19:31;2.80;;;0.77;;
51836;SDS011;38941;53.254;6.600;2023-10-31T00:21:33;3.90;;;0.80;;
51836;SDS011;38941;53.254;6.600;2023-10-31T00:23:34;5.20;;;1.20;;
51836;SDS011;38941;53.254;6.600;2023-10-31T00:25:42;3.58;;;0.75;;
51836;SDS011;38941;53.254;6.600;2023-10-31T00:27:42;4.68;;;0.80;;
51836;SDS011;38941;53.254;6.600;2023-10-31T00:29:43;3.45;;;0.70;;
51836;SDS011;38941;53.254;6.600;2023-10-31T00:31:44;3.88;;;1.15;;
51836;SDS011;38941;53.254;6.600;2023-10-31T00:33:45;4.50;;;0.82;;
51836;SDS011;38941;53.254;6.600;2023-10-31T00:35:46;2.47;;;0.60;;
51836;SDS011;38941;53.254;6.600;2023-10-31T00:37:46;5.85;;;1.20;;
51836;SDS011;38941;53.254;6.600;2023-10-31T00:39:47;7.53;;;1.20;;
51836;SDS011;38941;53.254;6.600;2023-10-31T00:41:48;6.93;;;1.02;;
51836;SDS011;38941;53.254;6.600;2023-10-31T00:43:49;5.00;;;0.73;;
51836;SDS011;38941;53.254;6.600;2023-10-31T00:45:49;7.38;;;0.90;;
51836;SDS011;38941;53.254;6.600;2023-10-31T00:47:50;3.13;;;1.05;;
51836;SDS011;38941;53.254;6.600;2023-10-31T00:49:51;5.82;;;0.70;;
51836;SDS011;38941;53.254;6.600;2023-10-31T00:51:53;4.47;;;0.70;;
51836;SDS011;38941;53.254;6.600;2023-10-31T00:53:54;2.35;;;0.63;;
51836;SDS011;38941;53.254;6.600;2023-10-31T00:55:54;1.13;;;0.50;;
51836;SDS011;38941;53.254;6.600;2023-10-31T00:57:55;2.55;;;0.70;;
51836;SDS011;38941;53.254;6.600;2023-10-31T00:59:56;2.63;;;1.00;;
51836;SDS011;38941;53.254;6.600;2023-10-31T01:01:56;5.18;;;0.55;;
51836;SDS011;38941;53.254;6.600;2023-10-31T01:03:57;2.38;;;0.80;;
51836;SDS011;38941;53.254;6.600;2023-10-31T01:05:58;3.55;;;0.60;;
51836;SDS011;38941;53.254;6.600;2023-10-31T01:07:59;4.13;;;0.90;;
51836;SDS011;38941;53.254;6.600;2023-10-31T01:09:59;2.83;;;1.17;;
51836;SDS011;38941;53.254;6.600;2023-10-31T01:12:00;2.47;;;0.90;;
51836;SDS011;38941;53.254;6.600;2023-10-31T01:14:01;2.20;;;0.60;;
51836;SDS011;38941;53.254;6.600;2023-10-31T01:16:03;0.88;;;0.45;;
51836;SDS011;38941;53.254;6.600;2023-10-31T01:18:04;3.88;;;0.60;;
51836;SDS011;38941;53.254;6.600;2023-10-31T01:20:06;1.67;;;0.40;;
51836;SDS011;38941;53.254;6.600;2023-10-31T01:22:07;4.10;;;0.68;;
51836;SDS011;38941;53.254;6.600;2023-10-31T01:24:08;3.33;;;0.70;;
51836;SDS011;38941;53.254;6.600;2023-10-31T01:26:09;1.13;;;0.50;;
51836;SDS011;38941;53.254;6.600;2023-10-31T01:28:10;3.45;;;0.40;;
51836;SDS011;38941;53.254;6.600;2023-10-31T01:30:10;3.80;;;0.80;;
51836;SDS011;38941;53.254;6.600;2023-10-31T01:32:12;5.35;;;0.90;;
51836;SDS011;38941;53.254;6.600;2023-10-31T01:34:12;5.15;;;0.90;;
51836;SDS011;38941;53.254;6.600;2023-10-31T01:36:13;2.42;;;0.75;;
51836;SDS011;38941;53.254;6.600;2023-10-31T01:38:14;2.25;;;0.77;;
51836;SDS011;38941;53.254;6.600;2023-10-31T01:40:15;5.97;;;0.93;;
51836;SDS011;38941;53.254;6.600;2023-10-31T01:42:16;2.35;;;0.60;;
51836;SDS011;38941;53.254;6.600;2023-10-31T01:44:17;4.75;;;0.82;;
51836;SDS011;38941;53.254;6.600;2023-10-31T01:46:18;2.67;;;0.80;;
51836;SDS011;38941;53.254;6.600;2023-10-31T01:48:19;2.55;;;0.77;;
51836;SDS011;38941;53.254;6.600;2023-10-31T01:50:19;3.17;;;0.60;;
51836;SDS011;38941;53.254;6.600;2023-10-31T01:52:21;5.60;;;0.70;;
51836;SDS011;38941;53.254;6.600;2023-10-31T01:54:22;2.90;;;0.65;;
51836;SDS011;38941;53.254;6.600;2023-10-31T01:56:22;3.67;;;0.80;;
51836;SDS011;38941;53.254;6.600;2023-10-31T01:58:25;3.28;;;0.50;;
51836;SDS011;38941;53.254;6.600;2023-10-31T02:00:31;3.35;;;0.82;;
51836;SDS011;38941;53.254;6.600;2023-10-31T02:02:32;4.95;;;0.70;;
51836;SDS011;38941;53.254;6.600;2023-10-31T02:04:35;1.88;;;0.50;;
51836;SDS011;38941;53.254;6.600;2023-10-31T02:06:35;5.47;;;0.75;;
51836;SDS011;38941;53.254;6.600;2023-10-31T02:08:36;4.10;;;0.70;;
51836;SDS011;38941;53.254;6.600;2023-10-31T02:10:37;3.25;;;0.93;;
51836;SDS011;38941;53.254;6.600;2023-10-31T02:12:38;4.22;;;0.73;;
51836;SDS011;38941;53.254;6.600;2023-10-31T02:14:39;4.10;;;1.02;;
51836;SDS011;38941;53.254;6.600;2023-10-31T02:16:39;5.57;;;0.60;;
51836;SDS011;38941;53.254;6.600;2023-10-31T02:18:40;1.13;;;0.55;;
51836;SDS011;38941;53.254;6.600;2023-10-31T02:20:41;2.85;;;0.60;;
51836;SDS011;38941;53.254;6.600;2023-10-31T02:22:42;2.42;;;0.40;;
51836;SDS011;38941;53.254;6.600;2023-10-31T02:24:43;5.10;;;0.70;;
51836;SDS011;38941;53.254;6.600;2023-10-31T02:26:44;4.80;;;0.90;;
51836;SDS011;38941;53.254;6.600;2023-10-31T02:28:44;5.22;;;1.02;;
51836;SDS011;38941;53.254;6.600;2023-10-31T02:30:45;1.67;;;0.50;;
51836;SDS011;38941;53.254;6.600;2023-10-31T02:32:46;3.83;;;0.77;;
51836;SDS011;38941;53.254;6.600;2023-10-31T02:34:47;3.88;;;0.65;;
51836;SDS011;38941;53.254;6.600;2023-10-31T02:36:48;4.57;;;0.80;;
51836;SDS011;38941;53.254;6.600;2023-10-31T02:38:49;5.25;;;1.00;;
51836;SDS011;38941;53.254;6.600;2023-10-31T02:40:50;3.95;;;0.73;;
51836;SDS011;38941;53.254;6.600;2023-10-31T02:42:50;4.53;;;0.90;;
51836;SDS011;38941;53.254;6.600;2023-10-31T02:44:51;3.05;;;0.57;;
51836;SDS011;38941;53.254;6.600;2023-10-31T02:46:52;10.55;;;0.80;;
51836;SDS011;38941;53.254;6.600;2023-10-31T02:48:53;7.20;;;0.90;;
51836;SDS011;38941;53.254;6.600;2023-10-31T02:50:53;4.35;;;0.80;;
51836;SDS011;38941;53.254;6.600;2023-10-31T02:52:54;5.38;;;0.70;;
51836;SDS011;38941;53.254;6.600;2023-10-31T02:54:55;7.53;;;0.90;;
51836;SDS011;38941;53.254;6.600;2023-10-31T02:56:57;3.55;;;0.63;;
51836;SDS011;38941;53.254;6.600;2023-10-31T02:58:58;6.20;;;1.00;;
51836;SDS011;38941;53.254;6.600;2023-10-31T03:00:59;7.13;;;1.10;;
51836;SDS011;38941;53.254;6.600;2023-10-31T03:02:59;3.47;;;0.90;;
51836;SDS011;38941;53.254;6.600;2023-10-31T03:05:00;6.20;;;1.00;;
51836;SDS011;38941;53.254;6.600;2023-10-31T03:07:02;2.63;;;1.10;;
51836;SDS011;38941;53.254;6.600;2023-10-31T03:09:03;3.53;;;0.80;;
51836;SDS011;38941;53.254;6.600;2023-10-31T03:11:04;5.22;;;1.20;;
51836;SDS011;38941;53.254;6.600;2023-10-31T03:13:04;4.10;;;1.30;;
51836;SDS011;38941;53.254;6.600;2023-10-31T03:15:05;2.83;;;1.02;;
51836;SDS011;38941;53.254;6.600;2023-10-31T03:17:07;4.88;;;1.50;;
51836;SDS011;38941;53.254;6.600;2023-10-31T03:19:07;4.20;;;1.10;;
51836;SDS011;38941;53.254;6.600;2023-10-31T03:21:09;3.97;;;1.13;;
51836;SDS011;38941;53.254;6.600;2023-10-31T03:23:10;4.65;;;0.90;;
51836;SDS011;38941;53.254;6.600;2023-10-31T03:25:11;8.35;;;1.15;;
51836;SDS011;38941;53.254;6.600;2023-10-31T03:27:11;3.35;;;1.02;;
51836;SDS011;38941;53.254;6.600;2023-10-31T03:29:12;3.17;;;1.00;;
51836;SDS011;38941;53.254;6.600;2023-10-31T03:31:13;4.90;;;1.30;;
51836;SDS011;38941;53.254;6.600;2023-10-31T03:33:15;3.58;;;1.15;;
51836;SDS011;38941;53.254;6.600;2023-10-31T03:35:18;6.78;;;1.48;;
51836;SDS011;38941;53.254;6.600;2023-10-31T03:37:19;6.97;;;1.35;;
51836;SDS011;38941;53.254;6.600;2023-10-31T03:39:20;4.40;;;1.50;;
51836;SDS011;38941;53.254;6.600;2023-10-31T03:41:20;4.65;;;1.38;;
51836;SDS011;38941;53.254;6.600;2023-10-31T03:43:21;4.32;;;1.90;;
51836;SDS011;38941;53.254;6.600;2023-10-31T03:45:22;8.00;;;2.25;;
51836;SDS011;38941;53.254;6.600;2023-10-31T03:47:23;2.67;;;1.30;;
51836;SDS011;38941;53.254;6.600;2023-10-31T03:49:23;6.30;;;1.65;;
51836;SDS011;38941;53.254;6.600;2023-10-31T03:51:24;2.83;;;1.40;;
51836;SDS011;38941;53.254;6.600;2023-10-31T03:53:25;5.88;;;2.03;;
51836;SDS011;38941;53.254;6.600;2023-10-31T03:55:26;3.67;;;1.65;;
51836;SDS011;38941;53.254;6.600;2023-10-31T03:57:26;4.70;;;1.90;;
51836;SDS011;38941;53.254;6.600;2023-10-31T03:59:27;6.88;;;1.90;;
51836;SDS011;38941;53.254;6.600;2023-10-31T04:01:28;7.15;;;2.00;;
51836;SDS011;38941;53.254;6.600;2023-10-31T04:03:29;4.25;;;1.83;;
51836;SDS011;38941;53.254;6.600;2023-10-31T04:05:29;5.90;;;1.83;;
51836;SDS011;38941;53.254;6.600;2023-10-31T04:07:30;4.18;;;1.33;;
51836;SDS011;38941;53.254;6.600;2023-10-31T04:09:31;3.28;;;1.77;;
51836;SDS011;38941;53.254;6.600;2023-10-31T04:11:32;3.58;;;1.55;;
51836;SDS011;38941;53.254;6.600;2023-10-31T04:13:32;5.53;;;1.83;;
51836;SDS011;38941;53.254;6.600;2023-10-31T04:15:33;2.33;;;1.50;;
51836;SDS011;38941;53.254;6.600;2023-10-31T04:17:35;5.75;;;2.05;;
51836;SDS011;38941;53.254;6.600;2023-10-31T04:19:38;7.15;;;1.70;;
51836;SDS011;38941;53.254;6.600;2023-10-31T04:21:40;4.18;;;1.67;;
51836;SDS011;38941;53.254;6.600;2023-10-31T04:23:41;5.20;;;1.50;;
51836;SDS011;38941;53.254;6.600;2023-10-31T04:25:41;8.10;;;1.55;;
51836;SDS011;38941;53.254;6.600;2023-10-31T04:27:43;4.05;;;1.75;;
51836;SDS011;38941;53.254;6.600;2023-10-31T04:29:44;1.90;;;1.23;;
51836;SDS011;38941;53.254;6.600;2023-10-31T04:31:45;3.15;;;1.77;;
51836;SDS011;38941;53.254;6.600;2023-10-31T04:33:46;9.95;;;1.70;;
51836;SDS011;38941;53.254;6.600;2023-10-31T04:35:46;5.88;;;1.38;;
51836;SDS011;38941;53.254;6.600;2023-10-31T04:37:47;4.32;;;1.23;;
51836;SDS011;38941;53.254;6.600;2023-10-31T04:39:48;4.63;;;2.03;;
51836;SDS011;38941;53.254;6.600;2023-10-31T04:41:49;11.75;;;1.90;;
51836;SDS011;38941;53.254;6.600;2023-10-31T04:43:49;3.97;;;1.15;;
51836;SDS011;38941;53.254;6.600;2023-10-31T04:45:50;1.52;;;0.90;;
51836;SDS011;38941;53.254;6.600;2023-10-31T04:47:51;4.85;;;1.08;;
51836;SDS011;38941;53.254;6.600;2023-10-31T04:49:52;6.22;;;1.55;;
51836;SDS011;38941;53.254;6.600;2023-10-31T04:51:52;6.20;;;1.10;;
51836;SDS011;38941;53.254;6.600;2023-10-31T04:53:53;5.78;;;1.67;;
51836;SDS011;38941;53.254;6.600;2023-10-31T04:55:54;4.25;;;1.38;;
51836;SDS011;38941;53.254;6.600;2023-10-31T04:57:55;3.40;;;0.88;;
51836;SDS011;38941;53.254;6.600;2023-10-31T04:59:55;3.83;;;0.73;;
51836;SDS011;38941;53.254;6.600;2023-10-31T05:01:57;7.20;;;1.15;;
51836;SDS011;38941;53.254;6.600;2023-10-31T05:03:58;7.03;;;1.10;;
51836;SDS011;38941;53.254;6.600;2023-10-31T05:06:00;5.22;;;1.55;;
51836;SDS011;38941;53.254;6.600;2023-10-31T05:08:00;4.53;;;1.10;;
51836;SDS011;38941;53.254;6.600;2023-10-31T05:10:01;5.90;;;1.15;;
51836;SDS011;38941;53.254;6.600;2023-10-31T05:12:02;8.27;;;1.42;;
51836;SDS011;38941;53.254;6.600;2023-10-31T05:14:03;4.97;;;1.30;;
51836;SDS011;38941;53.254;6.600;2023-10-31T05:16:04;4.32;;;1.02;;
51836;SDS011;38941;53.254;6.600;2023-10-31T05:18:05;3.75;;;1.38;;
51836;SDS011;38941;53.254;6.600;2023-10-31T05:20:06;3.13;;;1.42;;
51836;SDS011;38941;53.254;6.600;2023-10-31T05:22:08;2.10;;;0.77;;
51836;SDS011;38941;53.254;6.600;2023-10-31T05:24:10;4.35;;;1.35;;
51836;SDS011;38941;53.254;6.600;2023-10-31T05:26:11;1.40;;;0.75;;
51836;SDS011;38941;53.254;6.600;2023-10-31T05:28:12;5.20;;;0.90;;
51836;SDS011;38941;53.254;6.600;2023-10-31T05:30:13;3.25;;;0.80;;
51836;SDS011;38941;53.254;6.600;2023-10-31T05:32:14;2.47;;;0.88;;
51836;SDS011;38941;53.254;6.600;2023-10-31T05:34:15;2.75;;;0.70;;
51836;SDS011;38941;53.254;6.600;2023-10-31T05:36:22;2.42;;;0.98;;
51836;SDS011;38941;53.254;6.600;2023-10-31T05:38:24;3.60;;;0.93;;
51836;SDS011;38941;53.254;6.600;2023-10-31T05:40:24;0.80;;;0.60;;
51836;SDS011;38941;53.254;6.600;2023-10-31T05:42:27;2.88;;;0.60;;
51836;SDS011;38941;53.254;6.600;2023-10-31T05:44:28;2.78;;;0.50;;
51836;SDS011;38941;53.254;6.600;2023-10-31T05:46:29;2.08;;;0.50;;
51836;SDS011;38941;53.254;6.600;2023-10-31T05:48:30;3.85;;;0.45;;
51836;SDS011;38941;53.254;6.600;2023-10-31T05:50:31;2.05;;;0.20;;
51836;SDS011;38941;53.254;6.600;2023-10-31T05:52:32;1.02;;;0.30;;
51836;SDS011;38941;53.254;6.600;2023-10-31T05:54:33;1.42;;;0.30;;
51836;SDS011;38941;53.254;6.600;2023-10-31T05:56:34;1.33;;;0.60;;
51836;SDS011;38941;53.254;6.600;2023-10-31T05:58:35;1.30;;;0.45;;
51836;SDS011;38941;53.254;6.600;2023-10-31T06:00:37;0.90;;;0.30;;
51836;SDS011;38941;53.254;6.600;2023-10-31T06:02:38;2.17;;;0.50;;
51836;SDS011;38941;53.254;6.600;2023-10-31T06:04:39;2.70;;;0.60;;
51836;SDS011;38941;53.254;6.600;2023-10-31T06:06:39;1.35;;;0.55;;
51836;SDS011;38941;53.254;6.600;2023-10-31T06:08:41;2.95;;;0.75;;
51836;SDS011;38941;53.254;6.600;2023-10-31T06:10:41;1.17;;;0.60;;
51836;SDS011;38941;53.254;6.600;2023-10-31T06:12:42;1.60;;;0.35;;
51836;SDS011;38941;53.254;6.600;2023-10-31T06:14:43;3.40;;;0.63;;
51836;SDS011;38941;53.254;6.600;2023-10-31T06:16:44;1.50;;;0.60;;
51836;SDS011;38941;53.254;6.600;2023-10-31T06:18:44;2.75;;;0.70;;
51836;SDS011;38941;53.254;6.600;2023-10-31T06:20:45;2.72;;;0.50;;
51836;SDS011;38941;53.254;6.600;2023-10-31T06:22:46;0.68;;;0.60;;
51836;SDS011;38941;53.254;6.600;2023-10-31T06:24:47;1.77;;;0.65;;
51836;SDS011;38941;53.254;6.600;2023-10-31T06:26:48;2.92;;;0.70;;
51836;SDS011;38941;53.254;6.600;2023-10-31T06:28:49;2.75;;;0.77;;
51836;SDS011;38941;53.254;6.600;2023-10-31T06:30:49;1.17;;;0.88;;
51836;SDS011;38941;53.254;6.600;2023-10-31T06:32:51;1.65;;;0.85;;
51836;SDS011;38941;53.254;6.600;2023-10-31T06:34:53;2.47;;;1.35;;
51836;SDS011;38941;53.254;6.600;2023-10-31T06:36:54;1.40;;;0.90;;
51836;SDS011;38941;53.254;6.600;2023-10-31T06:38:54;4.32;;;1.35;;
51836;SDS011;38941;53.254;6.600;2023-10-31T06:40:56;2.65;;;0.80;;
51836;SDS011;38941;53.254;6.600;2023-10-31T06:42:57;4.55;;;1.00;;
51836;SDS011;38941;53.254;6.600;2023-10-31T06:44:58;5.75;;;0.95;;
51836;SDS011;38941;53.254;6.600;2023-10-31T06:46:59;3.17;;;0.85;;
51836;SDS011;38941;53.254;6.600;2023-10-31T06:48:59;1.70;;;0.93;;
51836;SDS011;38941;53.254;6.600;2023-10-31T06:51:00;1.58;;;0.90;;
51836;SDS011;38941;53.254;6.600;2023-10-31T06:53:01;2.15;;;1.02;;
51836;SDS011;38941;53.254;6.600;2023-10-31T06:55:02;3.88;;;0.95;;
51836;SDS011;38941;53.254;6.600;2023-10-31T06:57:03;1.95;;;0.73;;
51836;SDS011;38941;53.254;6.600;2023-10-31T06:59:04;2.38;;;1.13;;
51836;SDS011;38941;53.254;6.600;2023-10-31T07:01:05;2.20;;;1.30;;
51836;SDS011;38941;53.254;6.600;2023-10-31T07:03:05;4.65;;;1.23;;
51836;SDS011;38941;53.254;6.600;2023-10-31T07:05:09;2.58;;;1.08;;
51836;SDS011;38941;53.254;6.600;2023-10-31T07:07:10;2.63;;;1.20;;
51836;SDS011;38941;53.254;6.600;2023-10-31T07:09:11;3.83;;;1.13;;
51836;SDS011;38941;53.254;6.600;2023-10-31T07:11:11;3.63;;;0.95;;
51836;SDS011;38941;53.254;6.600;2023-10-31T07:13:12;3.65;;;1.02;;
51836;SDS011;38941;53.254;6.600;2023-10-31T07:15:13;3.78;;;1.35;;
51836;SDS011;38941;53.254;6.600;2023-10-31T07:17:14;3.38;;;1.02;;
51836;SDS011;38941;53.254;6.600;2023-10-31T07:19:14;2.78;;;1.00;;
51836;SDS011;38941;53.254;6.600;2023-10-31T07:21:15;5.38;;;1.40;;
51836;SDS011;38941;53.254;6.600;2023-10-31T07:23:16;4.18;;;1.67;;
51836;SDS011;38941;53.254;6.600;2023-10-31T07:25:17;7.28;;;1.42;;
51836;SDS011;38941;53.254;6.600;2023-10-31T07:27:18;3.67;;;0.98;;
51836;SDS011;38941;53.254;6.600;2023-10-31T07:29:19;3.55;;;1.25;;
51836;SDS011;38941;53.254;6.600;2023-10-31T07:31:19;6.10;;;1.33;;
51836;SDS011;38941;53.254;6.600;2023-10-31T07:33:20;8.38;;;1.15;;
51836;SDS011;38941;53.254;6.600;2023-10-31T07:35:21;2.58;;;1.55;;
51836;SDS011;38941;53.254;6.600;2023-10-31T07:37:22;3.75;;;1.33;;
51836;SDS011;38941;53.254;6.600;2023-10-31T07:39:22;6.90;;;1.55;;
51836;SDS011;38941;53.254;6.600;2023-10-31T07:41:23;2.08;;;1.15;;
51836;SDS011;38941;53.254;6.600;2023-10-31T07:43:24;4.15;;;1.25;;
51836;SDS011;38941;53.254;6.600;2023-10-31T07:45:25;3.50;;;1.17;;
51836;SDS011;38941;53.254;6.600;2023-10-31T07:47:26;3.90;;;1.30;;
51836;SDS011;38941;53.254;6.600;2023-10-31T07:49:27;5.38;;;1.23;;
51836;SDS011;38941;53.254;6.600;2023-10-31T07:51:28;4.15;;;0.75;;
51836;SDS011;38941;53.254;6.600;2023-10-31T07:53:28;2.75;;;1.10;;
51836;SDS011;38941;53.254;6.600;2023-10-31T07:55:30;1.83;;;0.82;;
51836;SDS011;38941;53.254;6.600;2023-10-31T07:57:31;4.38;;;1.70;;
51836;SDS011;38941;53.254;6.600;2023-10-31T07:59:35;4.20;;;1.00;;
51836;SDS011;38941;53.254;6.600;2023-10-31T08:01:36;3.70;;;0.70;;
51836;SDS011;38941;53.254;6.600;2023-10-31T08:03:37;5.47;;;0.98;;
51836;SDS011;38941;53.254;6.600;2023-10-31T08:05:39;2.92;;;0.73;;
51836;SDS011;38941;53.254;6.600;2023-10-31T08:07:40;1.10;;;0.70;;
51836;SDS011;38941;53.254;6.600;2023-10-31T08:09:40;2.75;;;0.63;;
51836;SDS011;38941;53.254;6.600;2023-10-31T08:11:41;3.00;;;0.60;;
51836;SDS011;38941;53.254;6.600;2023-10-31T08:13:42;4.78;;;0.68;;
51836;SDS011;38941;53.254;6.600;2023-10-31T08:15:43;5.50;;;0.80;;
51836;SDS011;38941;53.254;6.600;2023-10-31T08:17:44;6.57;;;0.85;;
51836;SDS011;38941;53.254;6.600;2023-10-31T08:19:45;3.17;;;0.30;;
51836;SDS011;38941;53.254;6.600;2023-10-31T08:21:46;2.00;;;0.82;;
51836;SDS011;38941;53.254;6.600;2023-10-31T08:23:47;3.78;;;0.60;;
51836;SDS011;38941;53.254;6.600;2023-10-31T08:25:48;6.03;;;0.47;;
51836;SDS011;38941;53.254;6.600;2023-10-31T08:27:50;3.15;;;0.45;;
51836;SDS011;38941;53.254;6.600;2023-10-31T08:29:51;2.80;;;0.63;;
51836;SDS011;38941;53.254;6.600;2023-10-31T08:31:52;1.85;;;0.50;;
51836;SDS011;38941;53.254;6.600;2023-10-31T08:33:52;7.03;;;0.68;;
51836;SDS011;38941;53.254;6.600;2023-10-31T08:35:53;6.10;;;0.65;;
51836;SDS011;38941;53.254;6.600;2023-10-31T08:37:55;5.95;;;0.82;;
51836;SDS011;38941;53.254;6.600;2023-10-31T08:39:56;2.63;;;0.60;;
51836;SDS011;38941;53.254;6.600;2023-10-31T08:41:57;4.03;;;0.60;;
51836;SDS011;38941;53.254;6.600;2023-10-31T08:43:58;6.45;;;0.73;;
51836;SDS011;38941;53.254;6.600;2023-10-31T08:46:02;2.60;;;0.82;;
51836;SDS011;38941;53.254;6.600;2023-10-31T08:48:03;9.32;;;0.50;;
51836;SDS011;38941;53.254;6.600;2023-10-31T08:50:04;5.45;;;0.70;;
51836;SDS011;38941;53.254;6.600;2023-10-31T08:52:08;9.52;;;0.70;;
51836;SDS011;38941;53.254;6.600;2023-10-31T08:54:09;4.80;;;0.70;;
51836;SDS011;38941;53.254;6.600;2023-10-31T08:56:11;4.40;;;0.88;;
51836;SDS011;38941;53.254;6.600;2023-10-31T08:58:12;8.30;;;0.50;;
51836;SDS011;38941;53.254;6.600;2023-10-31T09:00:13;1.83;;;0.70;;
51836;SDS011;38941;53.254;6.600;2023-10-31T09:02:15;4.22;;;1.10;;
51836;SDS011;38941;53.254;6.600;2023-10-31T09:04:15;4.18;;;0.30;;
51836;SDS011;38941;53.254;6.600;2023-10-31T09:06:17;3.90;;;0.73;;
51836;SDS011;38941;53.254;6.600;2023-10-31T09:08:18;3.20;;;0.38;;
51836;SDS011;38941;53.254;6.600;2023-10-31T09:10:19;6.90;;;0.80;;
51836;SDS011;38941;53.254;6.600;2023-10-31T09:12:19;3.38;;;0.75;;
51836;SDS011;38941;53.254;6.600;2023-10-31T09:14:20;5.70;;;0.80;;
51836;SDS011;38941;53.254;6.600;2023-10-31T09:16:21;14.93;;;1.65;;
51836;SDS011;38941;53.254;6.600;2023-10-31T09:18:22;4.25;;;1.15;;
51836;SDS011;38941;53.254;6.600;2023-10-31T09:20:22;5.00;;;1.25;;
51836;SDS011;38941;53.254;6.600;2023-10-31T09:22:23;3.90;;;1.38;;
51836;SDS011;38941;53.254;6.600;2023-10-31T09:24:27;7.88;;;0.50;;
51836;SDS011;38941;53.254;6.600;2023-10-31T09:26:28;3.20;;;0.45;;
51836;SDS011;38941;53.254;6.600;2023-10-31T09:28:29;2.15;;;0.40;;
51836;SDS011;38941;53.254;6.600;2023-10-31T09:30:29;5.15;;;0.75;;
51836;SDS011;38941;53.254;6.600;2023-10-31T09:32:30;2.55;;;0.45;;
51836;SDS011;38941;53.254;6.600;2023-10-31T09:34:31;1.88;;;0.25;;
51836;SDS011;38941;53.254;6.600;2023-10-31T09:36:32;1.20;;;0.30;;
51836;SDS011;38941;53.254;6.600;2023-10-31T09:38:36;5.65;;;0.30;;
51836;SDS011;38941;53.254;6.600;2023-10-31T09:40:38;2.92;;;0.60;;
51836;SDS011;38941;53.254;6.600;2023-10-31T09:42:39;2.13;;;0.40;;
51836;SDS011;38941;53.254;6.600;2023-10-31T09:44:40;5.10;;;0.57;;
51836;SDS011;38941;53.254;6.600;2023-10-31T09:46:41;2.08;;;0.20;;
51836;SDS011;38941;53.254;6.600;2023-10-31T09:48:41;2.28;;;0.32;;
51836;SDS011;38941;53.254;6.600;2023-10-31T09:50:43;4.55;;;0.57;;
51836;SDS011;38941;53.254;6.600;2023-10-31T09:52:45;5.95;;;0.20;;
51836;SDS011;38941;53.254;6.600;2023-10-31T09:54:47;2.20;;;0.25;;
51836;SDS011;38941;53.254;6.600;2023-10-31T09:56:49;2.15;;;0.32;;
51836;SDS011;38941;53.254;6.600;2023-10-31T09:58:51;2.50;;;0.80;;
51836;SDS011;38941;53.254;6.600;2023-10-31T10:00:52;3.58;;;0.45;;
51836;SDS011;38941;53.254;6.600;2023-10-31T10:02:54;1.60;;;0.25;;
51836;SDS011;38941;53.254;6.600;2023-10-31T10:04:55;2.97;;;0.20;;
51836;SDS011;38941;53.254;6.600;2023-10-31T10:07:02;3.65;;;0.65;;
51836;SDS011;38941;53.254;6.600;2023-10-31T10:09:04;0.50;;;0.40;;
51836;SDS011;38941;53.254;6.600;2023-10-31T10:11:06;1.13;;;0.20;;
51836;SDS011;38941;53.254;6.600;2023-10-31T10:13:08;1.23;;;0.45;;
51836;SDS011;38941;53.254;6.600;2023-10-31T10:15:10;4.20;;;0.20;;
51836;SDS011;38941;53.254;6.600;2023-10-31T10:19:17;3.60;;;0.35;;
51836;SDS011;38941;53.254;6.600;2023-10-31T10:21:20;1.95;;;0.35;;
51836;SDS011;38941;53.254;6.600;2023-10-31T10:23:21;2.08;;;0.40;;
51836;SDS011;38941;53.254;6.600;2023-10-31T10:25:22;3.85;;;0.63;;
51836;SDS011;38941;53.254;6.600;2023-10-31T10:27:23;3.17;;;0.88;;
51836;SDS011;38941;53.254;6.600;2023-10-31T10:29:24;4.13;;;0.38;;
51836;SDS011;38941;53.254;6.600;2023-10-31T10:31:26;1.48;;;0.30;;
51836;SDS011;38941;53.254;6.600;2023-10-31T10:33:27;3.25;;;0.25;;
51836;SDS011;38941;53.254;6.600;2023-10-31T10:35:28;3.45;;;0.60;;
51836;SDS011;38941;53.254;6.600;2023-10-31T10:37:29;1.08;;;0.30;;
51836;SDS011;38941;53.254;6.600;2023-10-31T10:39:30;2.42;;;0.50;;
51836;SDS011;38941;53.254;6.600;2023-10-31T10:41:34;1.52;;;0.22;;
51836;SDS011;38941;53.254;6.600;2023-10-31T10:43:38;2.15;;;0.38;;
51836;SDS011;38941;53.254;6.600;2023-10-31T10:45:41;6.47;;;0.30;;
51836;SDS011;38941;53.254;6.600;2023-10-31T10:47:49;6.13;;;0.63;;
51836;SDS011;38941;53.254;6.600;2023-10-31T10:49:51;3.33;;;0.32;;
51836;SDS011;38941;53.254;6.600;2023-10-31T10:51:58;3.00;;;0.50;;
51836;SDS011;38941;53.254;6.600;2023-10-31T10:54:08;1.85;;;0.40;;
51836;SDS011;38941;53.254;6.600;2023-10-31T10:56:16;2.75;;;0.63;;
51836;SDS011;38941;53.254;6.600;2023-10-31T10:58:26;3.80;;;0.80;;
51836;SDS011;38941;53.254;6.600;2023-10-31T11:00:34;1.65;;;0.30;;
51836;SDS011;38941;53.254;6.600;2023-10-31T11:02:38;3.40;;;0.28;;
51836;SDS011;38941;53.254;6.600;2023-10-31T11:04:43;4.65;;;0.80;;
51836;SDS011;38941;53.254;6.600;2023-10-31T11:06:45;6.07;;;1.50;;
51836;SDS011;38941;53.254;6.600;2023-10-31T11:08:46;6.78;;;1.15;;
51836;SDS011;38941;53.254;6.600;2023-10-31T11:10:48;3.88;;;0.57;;
51836;SDS011;38941;53.254;6.600;2023-10-31T11:12:50;4.80;;;0.88;;
51836;SDS011;38941;53.254;6.600;2023-10-31T11:14:51;6.07;;;0.50;;
51836;SDS011;38941;53.254;6.600;2023-10-31T11:16:52;6.63;;;0.88;;
51836;SDS011;38941;53.254;6.600;2023-10-31T11:18:56;9.32;;;0.60;;
51836;SDS011;38941;53.254;6.600;2023-10-31T11:20:57;3.50;;;0.50;;
51836;SDS011;38941;53.254;6.600;2023-10-31T11:22:58;4.10;;;0.80;;
51836;SDS011;38941;53.254;6.600;2023-10-31T11:25:00;3.75;;;0.45;;
51836;SDS011;38941;53.254;6.600;2023-10-31T11:27:02;3.45;;;0.70;;
51836;SDS011;38941;53.254;6.600;2023-10-31T11:29:04;5.68;;;0.80;;
51836;SDS011;38941;53.254;6.600;2023-10-31T11:31:07;6.82;;;0.98;;
51836;SDS011;38941;53.254;6.600;2023-10-31T11:33:12;3.75;;;0.57;;
51836;SDS011;38941;53.254;6.600;2023-10-31T11:35:14;4.22;;;0.40;;
51836;SDS011;38941;53.254;6.600;2023-10-31T11:37:24;4.03;;;0.50;;
51836;SDS011;38941;53.254;6.600;2023-10-31T11:39:28;2.85;;;0.57;;
51836;SDS011;38941;53.254;6.600;2023-10-31T11:41:29;3.63;;;0.47;;
51836;SDS011;38941;53.254;6.600;2023-10-31T11:47:47;4.03;;;0.70;;
51836;SDS011;38941;53.254;6.600;2023-10-31T11:49:51;3.03;;;1.10;;
51836;SDS011;38941;53.254;6.600;2023-10-31T11:51:52;2.85;;;0.70;;
51836;SDS011;38941;53.254;6.600;2023-10-31T11:53:54;3.88;;;0.70;;
51836;SDS011;38941;53.254;6.600;2023-10-31T11:55:55;3.95;;;0.65;;
51836;SDS011;38941;53.254;6.600;2023-10-31T11:57:56;8.70;;;0.90;;
51836;SDS011;38941;53.254;6.600;2023-10-31T11:59:57;5.90;;;0.90;;
51836;SDS011;38941;53.254;6.600;2023-10-31T12:01:58;7.10;;;1.45;;
51836;SDS011;38941;53.254;6.600;2023-10-31T12:03:59;7.47;;;0.90;;
51836;SDS011;38941;53.254;6.600;2023-10-31T12:06:00;4.22;;;0.65;;
51836;SDS011;38941;53.254;6.600;2023-10-31T12:08:01;5.28;;;1.08;;
51836;SDS011;38941;53.254;6.600;2023-10-31T12:10:02;5.97;;;2.28;;
51836;SDS011;38941;53.254;6.600;2023-10-31T12:12:02;5.40;;;1.13;;
51836;SDS011;38941;53.254;6.600;2023-10-31T12:14:03;12.90;;;1.05;;
51836;SDS011;38941;53.254;6.600;2023-10-31T12:16:05;6.15;;;0.75;;
51836;SDS011;38941;53.254;6.600;2023-10-31T12:18:08;5.72;;;1.17;;